sensor_id;sensor_type;location;lat;lon;timestamp;pressure;altitude;pressure_sealevel;temperature;humidity
5988;BME280;3021;51.000;6.980;2023-04-01T00:00:23;67454.16;;;10.36;100.00
5988;BME280;3021;51.000;6.980;2023-04-01T00:02:48;67449.09;;;10.34;100.00
5988;BME280;3021;51.000;6.980;2023-04-01T00:05:14;67467.59;;;10.50;100.00
5988;BME280;3021;51.000;6.980;2023-04-01T00:07:41;67480.72;;;10.60;100.00
5988;BME280;3021;51.000;6.980;2023-04-01T00:10:09;67494.59;;;10.72;100.00
5988;BME280;3021;51.000;6.980;2023-04-01T00:12:35;67501.53;;;10.78;100.00
5988;BME280;3021;51.000;6.980;2023-04-01T00:15:03;67516.13;;;10.94;100.00
5988;BME280;3021;51.000;6.980;2023-04-01T00:17:28;67529.28;;;11.03;100.00
5988;BME280;3021;51.000;6.980;2023-04-01T00:19:57;67533.91;;;11.07;100.00
5988;BME280;3021;51.000;6.980;2023-04-01T00:22:23;67545.44;;;11.17;100.00
5988;BME280;3021;51.000;6.980;2023-04-01T00:24:49;67547.22;;;11.19;100.00
5988;BME280;3021;51.000;6.980;2023-04-01T00:27:14;67547.78;;;11.19;100.00
5988;BME280;3021;51.000;6.980;2023-04-01T00:29:45;67554.72;;;11.26;100.00
5988;BME280;3021;51.000;6.980;2023-04-01T00:32:11;67554.72;;;11.26;100.00
5988;BME280;3021;51.000;6.980;2023-04-01T00:34:37;67557.44;;;11.26;100.00
5988;BME280;3021;51.000;6.980;2023-04-01T00:37:03;67558.78;;;11.29;100.00
5988;BME280;3021;51.000;6.980;2023-04-01T00:39:30;67562.94;;;11.35;100.00
5988;BME280;3021;51.000;6.980;2023-04-01T00:41:56;67557.59;;;11.28;100.00
5988;BME280;3021;51.000;6.980;2023-04-01T00:44:32;67556.59;;;11.30;100.00
5988;BME280;3021;51.000;6.980;2023-04-01T00:46:59;67560.78;;;11.36;100.00
5988;BME280;3021;51.000;6.980;2023-04-01T00:49:30;67562.38;;;11.35;100.00
5988;BME280;3021;51.000;6.980;2023-04-01T00:51:59;67554.72;;;11.26;100.00
5988;BME280;3021;51.000;6.980;2023-04-01T00:54:28;67550.38;;;11.27;100.00
5988;BME280;3021;51.000;6.980;2023-04-01T00:57:31;67547.22;;;11.19;100.00
5988;BME280;3021;51.000;6.980;2023-04-01T00:59:57;67551.97;;;11.26;100.00
5988;BME280;3021;51.000;6.980;2023-04-01T01:02:24;67552.56;;;11.26;100.00
5988;BME280;3021;51.000;6.980;2023-04-01T01:04:50;67550.69;;;11.22;100.00
5988;BME280;3021;51.000;6.980;2023-04-01T01:12:49;67544.16;;;11.14;100.00
5988;BME280;3021;51.000;6.980;2023-04-01T01:34:55;67464.09;;;10.47;100.00
5988;BME280;3021;51.000;6.980;2023-04-01T01:37:25;67465.56;;;10.44;100.00
5988;BME280;3021;51.000;6.980;2023-04-01T01:39:58;67466.28;;;10.47;100.00
5988;BME280;3021;51.000;6.980;2023-04-01T01:42:27;67453.56;;;10.35;100.00
5988;BME280;3021;51.000;6.980;2023-04-01T01:44:55;67462.81;;;10.44;100.00
5988;BME280;3021;51.000;6.980;2023-04-01T01:47:23;67457.03;;;10.38;100.00
5988;BME280;3021;51.000;6.980;2023-04-01T01:49:49;67445.47;;;10.28;100.00
5988;BME280;3021;51.000;6.980;2023-04-01T01:52:17;67429.84;;;10.14;100.00
5988;BME280;3021;51.000;6.980;2023-04-01T01:54:53;67425.25;;;10.10;100.00
5988;BME280;3021;51.000;6.980;2023-04-01T01:57:23;67425.81;;;10.11;100.00
5988;BME280;3021;51.000;6.980;2023-04-01T01:59:52;67418.00;;;10.09;100.00
5988;BME280;3021;51.000;6.980;2023-04-01T02:02:21;67414.28;;;10.00;100.00
5988;BME280;3021;51.000;6.980;2023-04-01T02:04:49;67416.41;;;10.00;100.00
5988;BME280;3021;51.000;6.980;2023-04-01T02:07:19;67398.81;;;9.89;100.00
5988;BME280;3021;51.000;6.980;2023-04-01T02:09:47;67400.97;;;9.89;100.00
5988;BME280;3021;51.000;6.980;2023-04-01T02:12:14;67382.66;;;9.75;100.00
5988;BME280;3021;51.000;6.980;2023-04-01T02:14:50;67384.97;;;9.77;100.00
5988;BME280;3021;51.000;6.980;2023-04-01T02:17:22;67385.97;;;9.75;100.00
5988;BME280;3021;51.000;6.980;2023-04-01T02:19:52;67369.38;;;9.63;100.00
5988;BME280;3021;51.000;6.980;2023-04-01T02:22:24;67369.22;;;9.60;100.00
5988;BME280;3021;51.000;6.980;2023-04-01T02:24:53;67358.97;;;9.54;100.00
5988;BME280;3021;51.000;6.980;2023-04-01T02:27:20;67356.53;;;9.49;100.00
5988;BME280;3021;51.000;6.980;2023-04-01T02:29:46;67347.84;;;9.41;100.00
5988;BME280;3021;51.000;6.980;2023-04-01T02:32:12;67348.56;;;9.44;100.00
5988;BME280;3021;51.000;6.980;2023-04-01T02:34:39;67346.72;;;9.40;100.00
5988;BME280;3021;51.000;6.980;2023-04-01T02:37:04;67332.25;;;9.27;100.00
5988;BME280;3021;51.000;6.980;2023-04-01T02:39:30;67329.41;;;9.25;100.00
5988;BME280;3021;51.000;6.980;2023-04-01T02:41:55;67336.16;;;9.28;100.00
5988;BME280;3021;51.000;6.980;2023-04-01T02:44:21;67335.88;;;9.33;100.00
5988;BME280;3021;51.000;6.980;2023-04-01T02:46:46;67339.78;;;9.34;100.00
5988;BME280;3021;51.000;6.980;2023-04-01T02:49:11;67340.38;;;9.34;100.00
5988;BME280;3021;51.000;6.980;2023-04-01T02:51:37;67340.94;;;9.35;100.00
5988;BME280;3021;51.000;6.980;2023-04-01T02:54:03;67343.22;;;9.37;100.00
5988;BME280;3021;51.000;6.980;2023-04-01T02:56:28;67348.88;;;9.40;100.00
5988;BME280;3021;51.000;6.980;2023-04-01T02:58:53;67347.44;;;9.43;100.00
5988;BME280;3021;51.000;6.980;2023-04-01T03:01:20;67349.00;;;9.42;100.00
5988;BME280;3021;51.000;6.980;2023-04-01T03:03:45;67347.69;;;9.39;100.00
5988;BME280;3021;51.000;6.980;2023-04-01T03:06:13;67350.59;;;9.41;100.00
5988;BME280;3021;51.000;6.980;2023-04-01T03:08:39;67347.28;;;9.41;100.00
5988;BME280;3021;51.000;6.980;2023-04-01T03:11:04;67345.56;;;9.39;100.00
5988;BME280;3021;51.000;6.980;2023-04-01T03:13:30;67343.22;;;9.37;100.00
5988;BME280;3021;51.000;6.980;2023-04-01T03:15:55;67356.38;;;9.46;100.00
5988;BME280;3021;51.000;6.980;2023-04-01T03:18:21;67339.34;;;9.36;100.00
5988;BME280;3021;51.000;6.980;2023-04-01T03:20:46;67347.28;;;9.41;100.00
5988;BME280;3021;51.000;6.980;2023-04-01T03:23:12;67341.50;;;9.36;100.00
5988;BME280;3021;51.000;6.980;2023-04-01T03:25:37;67331.13;;;9.26;100.00
5988;BME280;3021;51.000;6.980;2023-04-01T03:28:03;67334.59;;;9.29;100.00
5988;BME280;3021;51.000;6.980;2023-04-01T03:30:28;67338.19;;;9.35;100.00
5988;BME280;3021;51.000;6.980;2023-04-01T03:32:56;67340.38;;;9.34;100.00
5988;BME280;3021;51.000;6.980;2023-04-01T03:35:22;67333.44;;;9.28;100.00
5988;BME280;3021;51.000;6.980;2023-04-01T03:37:47;67331.28;;;9.29;100.00
5988;BME280;3021;51.000;6.980;2023-04-01T03:40:12;67342.50;;;9.34;100.00
5988;BME280;3021;51.000;6.980;2023-04-01T03:42:38;67340.94;;;9.35;100.00
5988;BME280;3021;51.000;6.980;2023-04-01T03:45:04;67343.81;;;9.38;100.00
5988;BME280;3021;51.000;6.980;2023-04-01T03:47:29;67334.75;;;9.32;100.00
5988;BME280;3021;51.000;6.980;2023-04-01T03:49:55;67328.22;;;9.24;100.00
5988;BME280;3021;51.000;6.980;2023-04-01T03:52:20;67328.38;;;9.26;100.00
5988;BME280;3021;51.000;6.980;2023-04-01T03:54:46;67331.84;;;9.29;100.00
5988;BME280;3021;51.000;6.980;2023-04-01T03:57:11;67324.06;;;9.18;100.00
5988;BME280;3021;51.000;6.980;2023-04-01T03:59:36;67329.97;;;9.25;100.00
5988;BME280;3021;51.000;6.980;2023-04-01T04:02:02;67331.28;;;9.29;100.00
5988;BME280;3021;51.000;6.980;2023-04-01T04:04:27;67342.66;;;9.37;100.00
5988;BME280;3021;51.000;6.980;2023-04-01T04:06:53;67338.03;;;9.32;100.00
5988;BME280;3021;51.000;6.980;2023-04-01T04:09:19;67343.22;;;9.37;100.00
5988;BME280;3021;51.000;6.980;2023-04-01T04:11:44;67338.03;;;9.32;100.00
5988;BME280;3021;51.000;6.980;2023-04-01T04:14:10;67342.66;;;9.37;100.00
5988;BME280;3021;51.000;6.980;2023-04-01T04:16:36;67345.41;;;9.37;100.00
5988;BME280;3021;51.000;6.980;2023-04-01T04:19:04;67335.75;;;9.30;100.00
5988;BME280;3021;51.000;6.980;2023-04-01T04:21:29;67346.13;;;9.40;100.00
5988;BME280;3021;51.000;6.980;2023-04-01T04:23:55;67328.38;;;9.26;100.00
5988;BME280;3021;51.000;6.980;2023-04-01T04:26:20;67335.88;;;9.33;100.00
5988;BME280;3021;51.000;6.980;2023-04-01T04:28:45;67344.41;;;9.38;100.00
5988;BME280;3021;51.000;6.980;2023-04-01T04:31:11;67341.50;;;9.36;100.00
5988;BME280;3021;51.000;6.980;2023-04-01T04:33:37;67338.63;;;9.33;100.00
5988;BME280;3021;51.000;6.980;2023-04-01T04:36:03;67347.13;;;9.38;100.00
5988;BME280;3021;51.000;6.980;2023-04-01T04:38:29;67353.63;;;9.46;100.00
5988;BME280;3021;51.000;6.980;2023-04-01T04:40:55;67354.22;;;9.47;100.00
5988;BME280;3021;51.000;6.980;2023-04-01T04:43:21;67347.28;;;9.41;100.00
5988;BME280;3021;51.000;6.980;2023-04-01T04:45:46;67338.19;;;9.35;100.00
5988;BME280;3021;51.000;6.980;2023-04-01T04:48:13;67349.44;;;9.40;100.00
5988;BME280;3021;51.000;6.980;2023-04-01T04:50:47;67344.97;;;9.39;100.00
5988;BME280;3021;51.000;6.980;2023-04-01T04:53:15;67346.72;;;9.40;100.00
5988;BME280;3021;51.000;6.980;2023-04-01T04:55:47;67351.19;;;9.42;100.00
5988;BME280;3021;51.000;6.980;2023-04-01T04:58:13;67351.31;;;9.44;100.00
5988;BME280;3021;51.000;6.980;2023-04-01T05:00:39;67353.47;;;9.44;100.00
5988;BME280;3021;51.000;6.980;2023-04-01T05:03:04;67354.81;;;9.47;100.00
5988;BME280;3021;51.000;6.980;2023-04-01T05:05:29;67338.19;;;9.35;100.00
5988;BME280;3021;51.000;6.980;2023-04-01T05:07:55;67345.56;;;9.39;100.00
5988;BME280;3021;51.000;6.980;2023-04-01T05:10:20;67351.31;;;9.44;100.00
5988;BME280;3021;51.000;6.980;2023-04-01T05:12:46;67348.44;;;9.42;100.00
5988;BME280;3021;51.000;6.980;2023-04-01T05:15:11;67337.31;;;9.29;100.00
5988;BME280;3021;51.000;6.980;2023-04-01T05:17:37;67340.94;;;9.35;100.00
5988;BME280;3021;51.000;6.980;2023-04-01T05:20:02;67342.66;;;9.37;100.00
5988;BME280;3021;51.000;6.980;2023-04-01T05:22:28;67344.41;;;9.38;100.00
5988;BME280;3021;51.000;6.980;2023-04-01T05:24:53;67352.06;;;9.47;100.00
5988;BME280;3021;51.000;6.980;2023-04-01T05:27:18;67351.91;;;9.45;100.00
5988;BME280;3021;51.000;6.980;2023-04-01T05:29:44;67359.25;;;9.49;100.00
5988;BME280;3021;51.000;6.980;2023-04-01T05:32:09;67362.28;;;9.54;100.00
5988;BME280;3021;51.000;6.980;2023-04-01T05:34:35;67364.03;;;9.56;100.00
5988;BME280;3021;51.000;6.980;2023-04-01T05:37:00;67365.75;;;9.57;100.00
5988;BME280;3021;51.000;6.980;2023-04-01T05:39:25;67358.41;;;9.53;100.00
5988;BME280;3021;51.000;6.980;2023-04-01T05:41:51;67364.59;;;9.56;100.00
5988;BME280;3021;51.000;6.980;2023-04-01T05:44:16;67372.69;;;9.63;100.00
5988;BME280;3021;51.000;6.980;2023-04-01T05:46:42;67357.41;;;9.55;100.00
5988;BME280;3021;51.000;6.980;2023-04-01T05:49:07;67360.16;;;9.55;100.00
5988;BME280;3021;51.000;6.980;2023-04-01T05:51:32;67361.16;;;9.53;100.00
5988;BME280;3021;51.000;6.980;2023-04-01T05:53:58;67358.41;;;9.53;100.00
5988;BME280;3021;51.000;6.980;2023-04-01T05:56:23;67365.91;;;9.60;100.00
5988;BME280;3021;51.000;6.980;2023-04-01T05:58:52;67362.28;;;9.54;100.00
5988;BME280;3021;51.000;6.980;2023-04-01T06:01:18;67369.81;;;9.61;100.00
5988;BME280;3021;51.000;6.980;2023-04-01T06:03:44;67360.16;;;9.55;100.00
5988;BME280;3021;51.000;6.980;2023-04-01T06:06:24;67366.91;;;9.58;100.00
5988;BME280;3021;51.000;6.980;2023-04-01T06:08:52;67362.88;;;9.55;100.00
5988;BME280;3021;51.000;6.980;2023-04-01T06:11:38;67363.44;;;9.55;100.00
5988;BME280;3021;51.000;6.980;2023-04-01T06:15:01;67374.41;;;9.65;100.00
5988;BME280;3021;51.000;6.980;2023-04-01T06:37:10;67421.91;;;10.10;100.00
5988;BME280;3021;51.000;6.980;2023-04-01T06:40:03;67422.50;;;10.10;100.00
5988;BME280;3021;51.000;6.980;2023-04-01T06:48:10;67432.19;;;10.16;100.00
5988;BME280;3021;51.000;6.980;2023-04-01T06:55:50;67426.97;;;10.12;100.00
5988;BME280;3021;51.000;6.980;2023-04-01T06:58:30;67434.06;;;10.20;100.00
5988;BME280;3021;51.000;6.980;2023-04-01T07:01:06;67437.38;;;10.21;100.00
5988;BME280;3021;51.000;6.980;2023-04-01T07:06:05;67432.91;;;10.19;100.00
5988;BME280;3021;51.000;6.980;2023-04-01T07:08:38;67449.50;;;10.32;100.00
5988;BME280;3021;51.000;6.980;2023-04-01T07:11:08;67437.53;;;10.24;100.00
5988;BME280;3021;51.000;6.980;2023-04-01T07:13:49;67440.84;;;10.24;100.00
5988;BME280;3021;51.000;6.980;2023-04-01T07:18:58;67412.66;;;10.01;100.00
5988;BME280;3021;51.000;6.980;2023-04-01T07:23:51;67427.56;;;10.12;100.00
5988;BME280;3021;51.000;6.980;2023-04-01T07:26:23;67426.09;;;10.16;100.00
5988;BME280;3021;51.000;6.980;2023-04-01T07:28:51;67426.38;;;10.11;100.00
5988;BME280;3021;51.000;6.980;2023-04-01T07:34:25;67437.94;;;10.21;100.00
5988;BME280;3021;51.000;6.980;2023-04-01T07:36:53;67436.66;;;10.18;100.00
5988;BME280;3021;51.000;6.980;2023-04-01T07:45:31;67412.09;;;10.01;100.00
5988;BME280;3021;51.000;6.980;2023-04-01T07:58:44;67425.25;;;10.10;100.00
5988;BME280;3021;51.000;6.980;2023-04-01T08:23:26;67451.84;;;10.34;100.00
5988;BME280;3021;51.000;6.980;2023-04-01T08:26:10;67446.03;;;10.29;100.00
5988;BME280;3021;51.000;6.980;2023-04-01T08:28:44;67462.25;;;10.43;100.00
5988;BME280;3021;51.000;6.980;2023-04-01T08:34:04;67460.63;;;10.44;100.00
5988;BME280;3021;51.000;6.980;2023-04-01T08:36:43;67467.44;;;10.48;100.00
5988;BME280;3021;51.000;6.980;2023-04-01T08:39:16;67471.47;;;10.51;100.00
5988;BME280;3021;51.000;6.980;2023-04-01T08:50:35;67489.41;;;10.67;100.00
5988;BME280;3021;51.000;6.980;2023-04-01T09:18:35;67474.97;;;10.54;100.00
5988;BME280;3021;51.000;6.980;2023-04-01T09:21:17;67467.00;;;10.50;100.00
5988;BME280;3021;51.000;6.980;2023-04-01T09:35:48;67496.34;;;10.74;100.00
5988;BME280;3021;51.000;6.980;2023-04-01T09:38:49;67491.72;;;10.69;100.00
5988;BME280;3021;51.000;6.980;2023-04-01T09:41:30;67492.56;;;10.75;100.00
5988;BME280;3021;51.000;6.980;2023-04-01T09:44:20;67499.78;;;10.77;100.00
5988;BME280;3021;51.000;6.980;2023-04-01T09:47:05;67514.81;;;10.90;100.00
5988;BME280;3021;51.000;6.980;2023-04-01T10:11:40;67489.13;;;10.72;100.00
5988;BME280;3021;51.000;6.980;2023-04-01T10:19:48;67466.44;;;10.49;100.00
5988;BME280;3021;51.000;6.980;2023-04-01T10:34:14;67507.44;;;10.86;100.00
5988;BME280;3021;51.000;6.980;2023-04-01T10:36:54;67496.91;;;10.74;100.00
5988;BME280;3021;51.000;6.980;2023-04-01T10:59:33;67523.34;;;10.95;100.00
5988;BME280;3021;51.000;6.980;2023-04-01T11:24:21;67511.34;;;10.87;100.00
5988;BME280;3021;51.000;6.980;2023-04-01T11:27:08;67516.56;;;10.92;100.00
5988;BME280;3021;51.000;6.980;2023-04-01T11:43:08;67536.94;;;11.12;100.00
5988;BME280;3021;51.000;6.980;2023-04-01T11:45:39;67532.16;;;11.05;100.00
5988;BME280;3021;51.000;6.980;2023-04-01T11:54:19;67637.00;;;12.01;100.00
5988;BME280;3021;51.000;6.980;2023-04-01T12:02:20;67693.28;;;12.54;100.00
5988;BME280;3021;51.000;6.980;2023-04-01T12:04:58;67728.44;;;12.83;100.00
5988;BME280;3021;51.000;6.980;2023-04-01T12:10:37;67700.06;;;12.57;100.00
5988;BME280;3021;51.000;6.980;2023-04-01T12:13:14;67740.63;;;12.93;100.00
5988;BME280;3021;51.000;6.980;2023-04-01T12:21:00;67866.47;;;14.08;100.00
5988;BME280;3021;51.000;6.980;2023-04-01T12:26:36;67785.06;;;13.30;100.00
5988;BME280;3021;51.000;6.980;2023-04-01T12:34:27;67675.78;;;12.36;100.00
5988;BME280;3021;51.000;6.980;2023-04-01T12:39:51;67693.84;;;12.54;100.00
5988;BME280;3021;51.000;6.980;2023-04-01T13:02:40;67708.19;;;12.65;100.00
5988;BME280;3021;51.000;6.980;2023-04-01T13:21:24;67623.25;;;11.91;100.00
5988;BME280;3021;51.000;6.980;2023-04-01T13:24:01;67635.13;;;11.97;100.00
5988;BME280;3021;51.000;6.980;2023-04-01T13:26:41;67644.38;;;12.05;100.00
5988;BME280;3021;51.000;6.980;2023-04-01T13:29:17;67674.03;;;12.34;100.00
5988;BME280;3021;51.000;6.980;2023-04-01T13:34:37;67687.38;;;12.46;100.00
5988;BME280;3021;51.000;6.980;2023-04-01T13:37:32;67656.66;;;12.19;100.00
5988;BME280;3021;51.000;6.980;2023-04-01T13:43:25;67597.66;;;11.66;100.00
5988;BME280;3021;51.000;6.980;2023-04-01T13:48:56;67568.31;;;11.43;100.00
5988;BME280;3021;51.000;6.980;2023-04-01T13:51:51;67536.34;;;11.12;100.00
5988;BME280;3021;51.000;6.980;2023-04-01T13:54:25;67540.41;;;11.15;100.00
5988;BME280;3021;51.000;6.980;2023-04-01T14:16:58;67531.75;;;11.07;100.00
5988;BME280;3021;51.000;6.980;2023-04-01T14:19:46;67527.13;;;11.03;100.00
5988;BME280;3021;51.000;6.980;2023-04-01T14:30:51;67533.31;;;11.06;100.00
5988;BME280;3021;51.000;6.980;2023-04-01T14:33:28;67507.88;;;10.84;100.00
5988;BME280;3021;51.000;6.980;2023-04-01T14:41:50;67524.22;;;11.01;100.00
5988;BME280;3021;51.000;6.980;2023-04-01T14:50:25;67528.84;;;11.05;100.00
5988;BME280;3021;51.000;6.980;2023-04-01T14:55:48;67531.75;;;11.07;100.00
5988;BME280;3021;51.000;6.980;2023-04-01T14:58:17;67529.28;;;11.03;100.00
5988;BME280;3021;51.000;6.980;2023-04-01T15:03:32;67543.72;;;11.16;100.00
5988;BME280;3021;51.000;6.980;2023-04-01T15:08:41;67551.25;;;11.22;100.00
5988;BME280;3021;51.000;6.980;2023-04-01T15:14:11;67567.13;;;11.41;100.00
5988;BME280;3021;51.000;6.980;2023-04-01T15:22:15;67577.97;;;11.49;100.00
5988;BME280;3021;51.000;6.980;2023-04-01T15:30:32;67564.84;;;11.39;100.00
5988;BME280;3021;51.000;6.980;2023-04-01T15:36:15;67554.84;;;11.28;100.00
5988;BME280;3021;51.000;6.980;2023-04-01T15:41:24;67546.63;;;11.18;100.00
5988;BME280;3021;51.000;6.980;2023-04-01T15:43:53;67538.38;;;11.09;100.00
5988;BME280;3021;51.000;6.980;2023-04-01T15:46:30;67528.84;;;11.05;100.00
5988;BME280;3021;51.000;6.980;2023-04-01T15:57:33;67534.50;;;11.07;100.00
5988;BME280;3021;51.000;6.980;2023-04-01T16:02:48;67525.94;;;11.02;100.00
5988;BME280;3021;51.000;6.980;2023-04-01T16:06:09;67522.50;;;10.99;100.00
5988;BME280;3021;51.000;6.980;2023-04-01T16:08:23;67510.78;;;10.86;100.00
5988;BME280;3021;51.000;6.980;2023-04-01T16:16:31;67515.13;;;10.95;100.00
5988;BME280;3021;51.000;6.980;2023-04-01T16:21:53;67505.72;;;10.84;100.00
5988;BME280;3021;51.000;6.980;2023-04-01T16:27:05;67517.84;;;10.95;100.00
5988;BME280;3021;51.000;6.980;2023-04-01T16:29:43;67514.09;;;10.87;100.00
5988;BME280;3021;51.000;6.980;2023-04-01T16:32:21;67502.41;;;10.84;100.00
5988;BME280;3021;51.000;6.980;2023-04-01T16:41:20;67483.19;;;10.64;100.00
5988;BME280;3021;51.000;6.980;2023-04-01T16:43:52;67481.03;;;10.65;100.00
5988;BME280;3021;51.000;6.980;2023-04-01T16:46:28;67458.75;;;10.40;100.00
5988;BME280;3021;51.000;6.980;2023-04-01T16:49:00;67464.09;;;10.47;100.00
5988;BME280;3021;51.000;6.980;2023-04-01T16:51:34;67467.16;;;10.52;100.00
5988;BME280;3021;51.000;6.980;2023-04-01T17:02:39;67456.59;;;10.41;100.00
5988;BME280;3021;51.000;6.980;2023-04-01T17:05:12;67469.75;;;10.50;100.00
5988;BME280;3021;51.000;6.980;2023-04-01T17:07:41;67471.06;;;10.53;100.00
5988;BME280;3021;51.000;6.980;2023-04-01T17:10:33;67480.72;;;10.60;100.00
5988;BME280;3021;51.000;6.980;2023-04-01T17:15:39;67470.91;;;10.51;100.00
5988;BME280;3021;51.000;6.980;2023-04-01T17:29:10;67448.09;;;10.35;100.00
5988;BME280;3021;51.000;6.980;2023-04-01T17:32:18;67447.78;;;10.30;100.00
5988;BME280;3021;51.000;6.980;2023-04-01T17:38:13;67438.81;;;10.27;100.00
5988;BME280;3021;51.000;6.980;2023-04-01T17:43:20;67446.78;;;10.32;100.00
5988;BME280;3021;51.000;6.980;2023-04-01T17:45:55;67440.41;;;10.26;100.00
5988;BME280;3021;51.000;6.980;2023-04-01T17:51:12;67449.09;;;10.34;100.00
5988;BME280;3021;51.000;6.980;2023-04-01T17:56:28;67439.81;;;10.26;100.00
5988;BME280;3021;51.000;6.980;2023-04-01T18:09:35;67435.63;;;10.19;100.00
5988;BME280;3021;51.000;6.980;2023-04-01T18:12:24;67431.16;;;10.18;100.00
5988;BME280;3021;51.000;6.980;2023-04-01T18:15:11;67424.25;;;10.12;100.00
5988;BME280;3021;51.000;6.980;2023-04-01T18:23:24;67411.53;;;10.00;100.00
5988;BME280;3021;51.000;6.980;2023-04-01T18:25:55;67419.47;;;10.05;100.00
5988;BME280;3021;51.000;6.980;2023-04-01T18:33:48;67427.56;;;10.12;100.00
5988;BME280;3021;51.000;6.980;2023-04-01T18:38:54;67423.09;;;10.11;100.00
5988;BME280;3021;51.000;6.980;2023-04-01T18:41:29;67427.56;;;10.12;100.00
5988;BME280;3021;51.000;6.980;2023-04-01T18:44:13;67432.19;;;10.16;100.00
5988;BME280;3021;51.000;6.980;2023-04-01T18:49:29;67416.00;;;10.02;100.00
5988;BME280;3021;51.000;6.980;2023-04-01T18:52:07;67419.78;;;10.10;100.00
5988;BME280;3021;51.000;6.980;2023-04-01T18:57:50;67421.19;;;10.07;100.00
5988;BME280;3021;51.000;6.980;2023-04-01T19:03:10;67413.84;;;10.02;100.00
5988;BME280;3021;51.000;6.980;2023-04-01T19:05:39;67399.84;;;9.88;100.00
5988;BME280;3021;51.000;6.980;2023-04-01T19:08:38;67411.94;;;9.98;100.00
5988;BME280;3021;51.000;6.980;2023-04-01T19:14:47;67401.56;;;9.89;100.00
5988;BME280;3021;51.000;6.980;2023-04-01T19:20:17;67400.56;;;9.91;100.00
5988;BME280;3021;51.000;6.980;2023-04-01T19:25:58;67376.72;;;9.67;100.00
5988;BME280;3021;51.000;6.980;2023-04-01T19:28:52;67393.63;;;9.84;100.00
5988;BME280;3021;51.000;6.980;2023-04-01T19:34:37;67399.41;;;9.90;100.00
5988;BME280;3021;51.000;6.980;2023-04-01T19:37:19;67394.78;;;9.85;100.00
5988;BME280;3021;51.000;6.980;2023-04-01T19:39:56;67404.47;;;9.92;100.00
5988;BME280;3021;51.000;6.980;2023-04-01T19:48:02;67401.13;;;9.91;100.00
5988;BME280;3021;51.000;6.980;2023-04-01T19:53:24;67387.28;;;9.79;100.00
5988;BME280;3021;51.000;6.980;2023-04-01T19:56:07;67379.75;;;9.72;100.00
5988;BME280;3021;51.000;6.980;2023-04-01T20:01:24;67380.19;;;9.70;100.00
5988;BME280;3021;51.000;6.980;2023-04-01T20:04:02;67372.69;;;9.63;100.00
5988;BME280;3021;51.000;6.980;2023-04-01T20:14:57;67381.91;;;9.72;100.00
5988;BME280;3021;51.000;6.980;2023-04-01T20:17:43;67364.16;;;9.58;100.00
5988;BME280;3021;51.000;6.980;2023-04-01T20:28:13;67361.28;;;9.56;100.00
5988;BME280;3021;51.000;6.980;2023-04-01T20:42:57;67372.84;;;9.66;100.00
5988;BME280;3021;51.000;6.980;2023-04-01T20:48:40;67363.44;;;9.55;100.00
5988;BME280;3021;51.000;6.980;2023-04-01T20:51:15;67367.06;;;9.61;100.00
5988;BME280;3021;51.000;6.980;2023-04-01T21:18:13;67409.06;;;9.96;100.00
5988;BME280;3021;51.000;6.980;2023-04-01T21:20:59;67404.03;;;9.94;100.00
5988;BME280;3021;51.000;6.980;2023-04-01T21:37:19;67405.59;;;9.93;100.00
5988;BME280;3021;51.000;6.980;2023-04-01T21:40:00;67404.59;;;9.94;100.00
5988;BME280;3021;51.000;6.980;2023-04-01T21:47:54;67413.13;;;9.99;100.00
5988;BME280;3021;51.000;6.980;2023-04-01T21:56:09;67413.25;;;10.02;100.00
5988;BME280;3021;51.000;6.980;2023-04-01T22:04:41;67419.47;;;10.05;100.00
5988;BME280;3021;51.000;6.980;2023-04-01T22:07:21;67410.38;;;9.99;100.00
5988;BME280;3021;51.000;6.980;2023-04-01T22:18:09;67401.84;;;9.94;100.00
5988;BME280;3021;51.000;6.980;2023-04-01T22:23:50;67406.47;;;9.98;100.00
5988;BME280;3021;51.000;6.980;2023-04-01T22:29:19;67404.75;;;9.97;100.00
5988;BME280;3021;51.000;6.980;2023-04-01T22:31:55;67410.81;;;9.97;100.00
5988;BME280;3021;51.000;6.980;2023-04-01T22:34:31;67416.00;;;10.02;100.00
5988;BME280;3021;51.000;6.980;2023-04-01T22:42:36;67418.91;;;10.05;100.00
5988;BME280;3021;51.000;6.980;2023-04-01T22:45:05;67417.72;;;10.03;100.00
5988;BME280;3021;51.000;6.980;2023-04-01T22:52:47;67421.75;;;10.07;100.00
5988;BME280;3021;51.000;6.980;2023-04-01T22:55:21;67412.81;;;10.04;100.00
5988;BME280;3021;51.000;6.980;2023-04-01T22:58:06;67423.66;;;10.11;100.00
5988;BME280;3021;51.000;6.980;2023-04-01T23:03:09;67423.22;;;10.13;100.00
5988;BME280;3021;51.000;6.980;2023-04-01T23:05:40;67429.00;;;10.18;100.00
5988;BME280;3021;51.000;6.980;2023-04-01T23:11:06;67430.44;;;10.15;100.00
5988;BME280;3021;51.000;6.980;2023-04-01T23:13:46;67432.75;;;10.17;100.00
5988;BME280;3021;51.000;6.980;2023-04-01T23:16:14;67431.00;;;10.15;100.00
5988;BME280;3021;51.000;6.980;2023-04-01T23:27:51;67429.84;;;10.14;100.00
5988;BME280;3021;51.000;6.980;2023-04-01T23:33:20;67429.00;;;10.18;100.00
5988;BME280;3021;51.000;6.980;2023-04-01T23:38:13;67415.00;;;10.03;100.00
5988;BME280;3021;51.000;6.980;2023-04-01T23:40:39;67425.97;;;10.13;100.00
5988;BME280;3021;51.000;6.980;2023-04-01T23:43:13;67427.13;;;10.14;100.00
5988;BME280;3021;51.000;6.980;2023-04-01T23:45:41;67424.81;;;10.12;100.00
5988;BME280;3021;51.000;6.980;2023-04-01T23:48:11;67435.06;;;10.19;100.00
5988;BME280;3021;51.000;6.980;2023-04-01T23:50:40;67434.06;;;10.20;100.00
5988;BME280;3021;51.000;6.980;2023-04-01T23:53:21;67426.69;;;10.16;100.00
5988;BME280;3021;51.000;6.980;2023-04-01T23:55:48;67434.63;;;10.21;100.00
